Archival Weather

Doha Intl Airport

Doha Intl Airport, Qatar (OTBD)

Report from: Thursday, September 21, 2023 10:30 PM +03
Current time: Saturday, February 24, 2024 8:07 PM +03

Current weather – Weather history – Daily summaries
Weather forecast

Temperature35.0°C (95.0°F)
Heat index34.4°C (93.9°F)
Dew point14.0°C (57.2°F)
Winds 5 kts (2.6 m/s, 5.8 mph) North-Northwest (340°)
Clouds Sky clear
Altimeter29.65 in.Hg (1004 mB)
Relative humidity28 %
Density altitude2,802 ft. (854 m)
Remarks Fully automated report
Ceiling and visibility OK
No significant changes expected in the next two hours
Flight conditions Visual Meteorological Conditions
Raw dataOTBD 211930Z AUTO 34005KT CAVOK 35/14 Q1004 NOSIG
An error has occurred. This application may no longer respond until reloaded. Reload 🗙